createdAt,value
2019-02-22T00:02:39.146Z,56.60
2019-02-22T00:05:11.095Z,56.60
2019-02-22T00:07:42.884Z,56.60
2019-02-22T00:10:14.558Z,56.60
2019-02-22T00:12:46.327Z,56.80
2019-02-22T00:15:18.160Z,56.90
2019-02-22T00:17:49.988Z,57.00
2019-02-22T00:20:21.891Z,57.10
2019-02-22T00:22:54.115Z,57.10
2019-02-22T00:25:26.037Z,57.30
2019-02-22T00:27:57.831Z,57.30
2019-02-22T00:30:29.589Z,57.40
2019-02-22T00:33:02.440Z,57.40
2019-02-22T00:35:34.562Z,57.50
2019-02-22T00:38:09.872Z,57.40
2019-02-22T00:40:41.652Z,57.50
2019-02-22T00:43:13.520Z,57.50
2019-02-22T00:45:45.203Z,57.50
2019-02-22T00:48:16.965Z,57.60
2019-02-22T00:50:48.651Z,57.60
2019-02-22T00:53:20.594Z,57.60
2019-02-22T00:55:52.271Z,57.90
2019-02-22T00:58:23.985Z,57.80
2019-02-22T01:00:55.685Z,57.80
2019-02-22T01:03:27.412Z,57.90
2019-02-22T01:05:59.102Z,58.00
2019-02-22T01:08:30.797Z,58.00
2019-02-22T01:11:02.954Z,58.00
2019-02-22T01:13:34.622Z,58.10
2019-02-22T01:16:06.350Z,58.10
2019-02-22T01:18:38.161Z,58.20
2019-02-22T01:21:09.812Z,58.10
2019-02-22T01:23:41.594Z,58.20
2019-02-22T01:26:13.327Z,58.20
2019-02-22T01:28:44.985Z,58.30
2019-02-22T01:31:16.725Z,58.30
2019-02-22T01:33:48.396Z,58.40
2019-02-22T01:36:20.062Z,58.40
2019-02-22T01:38:51.815Z,58.50
2019-02-22T01:41:23.540Z,58.60
2019-02-22T01:43:55.220Z,58.60
2019-02-22T01:46:26.990Z,58.60
2019-02-22T01:48:58.681Z,58.70
2019-02-22T01:51:30.352Z,58.70
2019-02-22T01:54:02.078Z,58.90
2019-02-22T01:56:33.790Z,58.90
2019-02-22T01:59:05.602Z,57.90
2019-02-22T02:01:37.285Z,59.00
2019-02-22T02:04:08.975Z,59.00
2019-02-22T02:06:40.617Z,59.00
2019-02-22T02:09:12.468Z,59.10
2019-02-22T02:11:44.309Z,58.90
2019-02-22T02:14:16.111Z,59.10
2019-02-22T02:16:47.752Z,59.50
2019-02-22T02:19:19.489Z,59.20
2019-02-22T02:21:51.225Z,59.20
2019-02-22T02:24:22.934Z,59.30
2019-02-22T02:26:54.615Z,59.30
2019-02-22T02:29:26.340Z,59.30
2019-02-22T02:31:58.016Z,59.40
2019-02-22T02:34:29.680Z,59.50
2019-02-22T02:37:01.381Z,59.50
2019-02-22T02:39:33.049Z,59.60
2019-02-22T02:42:04.824Z,59.60
2019-02-22T02:44:36.681Z,59.70
2019-02-22T02:47:08.353Z,59.70
2019-02-22T02:49:40.003Z,59.70
2019-02-22T02:52:11.662Z,59.70
2019-02-22T02:54:43.371Z,59.70
2019-02-22T02:57:15.027Z,59.70
2019-02-22T02:59:46.943Z,59.80
2019-02-22T03:02:30.803Z,59.80
2019-02-22T03:05:02.522Z,59.90
2019-02-22T03:07:45.008Z,59.90
2019-02-22T03:10:16.656Z,60.00
2019-02-22T03:12:48.330Z,59.90
2019-02-22T03:15:20.421Z,60.00
2019-02-22T03:17:52.215Z,59.90
2019-02-22T03:20:23.926Z,60.00
2019-02-22T03:22:55.601Z,60.00
2019-02-22T03:25:27.268Z,60.20
2019-02-22T03:27:58.981Z,60.20
2019-02-22T03:30:30.890Z,60.10
2019-02-22T03:33:02.687Z,60.10
2019-02-22T03:35:34.332Z,60.10
2019-02-22T03:38:06.119Z,60.10
2019-02-22T03:40:39.126Z,60.00
2019-02-22T03:43:10.770Z,60.20
2019-02-22T03:45:42.443Z,60.30
2019-02-22T03:48:14.174Z,60.30
2019-02-22T03:50:45.928Z,60.50
2019-02-22T03:53:48.753Z,60.50
2019-02-22T03:56:20.448Z,60.40
2019-02-22T03:58:52.127Z,60.30
2019-02-22T04:01:23.902Z,60.30
2019-02-22T04:03:55.574Z,60.40
2019-02-22T04:06:27.332Z,60.50
2019-02-22T04:08:59.177Z,60.70
2019-02-22T04:11:30.830Z,60.70
2019-02-22T04:14:02.705Z,60.60
2019-02-22T04:16:34.392Z,60.60
2019-02-22T04:19:06.050Z,60.70
2019-02-22T04:21:37.741Z,60.60
2019-02-22T04:24:09.610Z,60.70
2019-02-22T04:26:41.294Z,60.70
2019-02-22T04:29:12.998Z,60.70
2019-02-22T04:31:44.673Z,60.80
2019-02-22T04:34:16.382Z,60.80
2019-02-22T04:36:48.168Z,60.80
2019-02-22T04:39:19.829Z,60.90
2019-02-22T04:41:58.035Z,60.90
2019-02-22T04:44:24.979Z,61.10
2019-02-22T04:46:56.697Z,61.20
2019-02-22T04:49:28.364Z,61.20
2019-02-22T04:52:00.072Z,61.10
2019-02-22T04:54:31.774Z,60.80
2019-02-22T04:57:03.509Z,61.10
2019-02-22T04:59:35.145Z,61.20
2019-02-22T05:02:06.822Z,61.20
2019-02-22T05:04:38.503Z,61.20
2019-02-22T05:07:10.275Z,61.30
2019-02-22T05:09:42.012Z,61.30
2019-02-22T05:12:13.735Z,62.10
2019-02-22T05:14:45.427Z,61.40
2019-02-22T05:17:17.243Z,61.40
2019-02-22T05:19:48.935Z,61.40
2019-02-22T05:22:20.591Z,61.50
2019-02-22T05:24:52.298Z,61.50
2019-02-22T05:27:24.010Z,61.50
2019-02-22T05:29:55.882Z,61.60
2019-02-22T05:32:27.691Z,61.50
2019-02-22T05:34:59.367Z,61.40
2019-02-22T05:37:31.156Z,61.50
2019-02-22T05:40:02.929Z,61.60
2019-02-22T05:42:34.707Z,61.60
2019-02-22T05:45:06.847Z,61.50
2019-02-22T05:47:38.670Z,61.80
2019-02-22T05:50:13.227Z,61.70
2019-02-22T05:52:51.452Z,61.80
2019-02-22T05:55:23.217Z,61.90
2019-02-22T05:57:55.067Z,61.80
2019-02-22T06:00:26.995Z,61.70
2019-02-22T06:02:58.779Z,61.80
2019-02-22T06:05:30.742Z,61.80
2019-02-22T06:08:02.556Z,61.80
2019-02-22T06:10:34.905Z,61.80
2019-02-22T06:13:06.593Z,61.80
2019-02-22T06:15:38.417Z,62.00
2019-02-22T06:18:10.084Z,61.60
2019-02-22T06:20:41.753Z,62.00
2019-02-22T06:23:13.470Z,62.00
2019-02-22T06:25:46.688Z,62.00
2019-02-22T06:28:18.405Z,62.80
2019-02-22T06:30:50.338Z,62.10
2019-02-22T06:33:22.108Z,62.10
2019-02-22T06:35:53.858Z,62.20
2019-02-22T06:38:25.913Z,62.20
2019-02-22T06:40:57.811Z,62.10
2019-02-22T06:43:30.394Z,62.20
2019-02-22T06:46:02.197Z,62.60
2019-02-22T06:48:34.176Z,62.20
2019-02-22T06:51:05.885Z,62.20
2019-02-22T06:53:37.666Z,62.20
2019-02-22T06:56:09.366Z,62.10
2019-02-22T06:58:41.212Z,62.20
2019-02-22T07:01:12.966Z,62.20
2019-02-22T07:03:45.284Z,62.10
2019-02-22T07:06:17.174Z,62.10
2019-02-22T07:08:49.146Z,62.20
2019-02-22T07:11:39.860Z,63.40
2019-02-22T07:14:11.747Z,62.80
2019-02-22T07:16:43.595Z,62.70
2019-02-22T07:19:15.423Z,62.60
2019-02-22T07:21:52.794Z,62.50
2019-02-22T07:24:20.744Z,62.50
2019-02-22T07:26:52.518Z,62.50
2019-02-22T07:29:24.700Z,62.50
2019-02-22T07:32:05.201Z,62.30
2019-02-22T07:34:30.047Z,62.40
2019-02-22T07:37:02.592Z,62.50
2019-02-22T07:39:34.228Z,62.50
2019-02-22T07:42:06.119Z,62.50
2019-02-22T07:44:37.824Z,62.40
2019-02-22T07:47:09.741Z,62.40
2019-02-22T07:49:41.449Z,62.50
2019-02-22T07:52:13.512Z,62.50
2019-02-22T07:54:47.087Z,62.50
2019-02-22T07:57:19.007Z,62.60
2019-02-22T07:59:50.920Z,62.50
2019-02-22T08:02:22.718Z,62.70
2019-02-22T08:04:54.845Z,62.70
2019-02-22T08:07:26.694Z,64.60
2019-02-22T08:09:58.507Z,64.20
2019-02-22T08:12:30.257Z,63.70
2019-02-22T08:15:02.038Z,63.50
2019-02-22T08:17:33.704Z,63.20
2019-02-22T08:20:06.001Z,63.10
2019-02-22T08:22:37.780Z,63.10
2019-02-22T08:25:09.759Z,63.20
2019-02-22T08:27:52.693Z,63.00
2019-02-22T08:30:16.689Z,63.00
2019-02-22T08:32:48.433Z,62.90
2019-02-22T08:35:20.317Z,62.90
2019-02-22T08:37:52.044Z,63.00
2019-02-22T08:40:24.530Z,63.20
2019-02-22T08:42:56.286Z,63.20
2019-02-22T08:45:28.106Z,63.20
2019-02-22T08:47:59.926Z,63.30
2019-02-22T08:50:31.824Z,63.50
2019-02-22T08:53:03.509Z,63.50
2019-02-22T08:55:36.712Z,63.40
2019-02-22T08:58:08.621Z,63.30
2019-02-22T09:00:40.382Z,63.30
2019-02-22T09:03:12.451Z,63.40
2019-02-22T09:05:44.143Z,63.50
2019-02-22T09:08:15.933Z,63.30
2019-02-22T09:10:57.320Z,63.30
2019-02-22T09:13:21.108Z,63.20
2019-02-22T09:15:52.761Z,63.20
2019-02-22T09:18:25.729Z,63.40
2019-02-22T09:20:57.540Z,63.40
2019-02-22T09:23:29.322Z,63.50
2019-02-22T09:26:01.636Z,63.40
2019-02-22T09:28:33.369Z,63.30
2019-02-22T09:31:05.194Z,63.20
2019-02-22T09:33:36.939Z,63.10
2019-02-22T09:36:08.773Z,63.00
2019-02-22T09:38:40.646Z,62.90
2019-02-22T09:41:12.326Z,62.80
2019-02-22T09:43:54.285Z,62.80
2019-02-22T09:46:17.520Z,62.90
2019-02-22T09:48:49.147Z,62.70
2019-02-22T09:51:20.941Z,62.70
2019-02-22T09:53:52.704Z,62.80
2019-02-22T09:56:24.603Z,62.90
2019-02-22T09:58:56.758Z,62.90
2019-02-22T10:01:28.540Z,63.00
2019-02-22T10:04:00.376Z,63.00
2019-02-22T10:06:32.176Z,63.30
2019-02-22T10:09:05.427Z,63.60
2019-02-22T10:11:37.150Z,63.80
2019-02-22T10:14:09.115Z,63.80
2019-02-22T10:16:40.876Z,64.00
2019-02-22T10:19:15.803Z,64.00
2019-02-22T10:21:47.603Z,64.20
2019-02-22T10:24:19.384Z,65.30
2019-02-22T10:26:51.245Z,66.20
2019-02-22T10:29:23.574Z,65.80
2019-02-22T10:31:55.447Z,64.70
2019-02-22T10:34:27.154Z,64.50
2019-02-22T10:36:59.256Z,63.30
2019-02-22T10:39:30.925Z,63.00
2019-02-22T10:42:02.724Z,63.00
2019-02-22T10:44:34.616Z,62.00
2019-02-22T10:47:06.518Z,60.90
2019-02-22T10:49:38.178Z,59.30
2019-02-22T10:52:09.990Z,58.80
2019-02-22T10:54:41.750Z,57.90
2019-02-22T10:57:13.513Z,57.20
2019-02-22T10:59:45.443Z,56.90
2019-02-22T11:02:20.649Z,56.40
2019-02-22T11:04:52.502Z,56.20
2019-02-22T11:07:24.277Z,56.10
2019-02-22T11:09:56.005Z,56.20
2019-02-22T11:12:27.745Z,56.60
2019-02-22T11:14:59.557Z,57.00
2019-02-22T11:17:31.339Z,56.40
2019-02-22T11:20:03.180Z,55.90
2019-02-22T11:22:35.790Z,55.60
2019-02-22T11:25:10.225Z,55.50
2019-02-22T11:27:42.142Z,55.30
2019-02-22T11:30:14.519Z,55.10
2019-02-22T11:32:46.323Z,55.90
2019-02-22T11:35:18.037Z,57.50
2019-02-22T11:37:49.710Z,59.30
2019-02-22T11:40:21.431Z,59.30
2019-02-22T11:42:53.186Z,57.90
2019-02-22T11:45:24.935Z,57.40
2019-02-22T11:47:56.633Z,56.50
2019-02-22T11:50:29.119Z,55.50
2019-02-22T11:53:00.973Z,54.60
2019-02-22T11:55:33.070Z,54.10
2019-02-22T11:58:04.953Z,52.70
2019-02-22T12:00:36.987Z,52.10
2019-02-22T12:03:21.328Z,51.80
2019-02-22T12:05:42.147Z,52.20
2019-02-22T12:08:13.959Z,51.30
2019-02-22T12:10:45.681Z,51.00
2019-02-22T12:13:17.633Z,50.60
2019-02-22T12:15:49.472Z,50.30
2019-02-22T12:18:21.505Z,50.40
2019-02-22T12:20:53.446Z,50.80
2019-02-22T12:23:25.323Z,52.10
2019-02-22T12:25:57.165Z,53.50
2019-02-22T12:28:29.078Z,53.90
2019-02-22T12:31:01.472Z,54.90
2019-02-22T12:33:33.209Z,54.80
2019-02-22T12:36:05.497Z,54.70
2019-02-22T12:38:39.069Z,53.80
2019-02-22T12:41:11.826Z,51.10
2019-02-22T12:43:45.685Z,50.30
2019-02-22T12:46:18.358Z,48.50
2019-02-22T12:48:50.111Z,48.10
2019-02-22T12:51:22.011Z,47.50
2019-02-22T12:53:54.239Z,46.20
2019-02-22T12:56:55.925Z,44.90
2019-02-22T12:58:59.573Z,44.40
2019-02-22T13:01:31.433Z,45.00
2019-02-22T13:04:03.303Z,45.00
2019-02-22T13:06:35.096Z,44.90
2019-02-22T13:09:09.368Z,43.90
2019-02-22T13:11:41.252Z,43.50
2019-02-22T13:14:13.873Z,43.40
2019-02-22T13:16:46.614Z,43.40
2019-02-22T13:19:18.498Z,42.70
2019-02-22T13:21:50.258Z,42.40
2019-02-22T13:24:22.272Z,42.50
2019-02-22T13:26:54.109Z,42.30
2019-02-22T13:29:27.552Z,42.20
2019-02-22T13:31:59.383Z,42.00
2019-02-22T13:34:31.596Z,41.80
2019-02-22T13:37:03.514Z,41.90
2019-02-22T13:39:35.400Z,41.70
2019-02-22T13:42:07.357Z,41.80
2019-02-22T13:44:39.269Z,41.60
2019-02-22T13:47:11.208Z,41.70
2019-02-22T13:49:44.316Z,41.80
2019-02-22T13:52:16.183Z,41.20
2019-02-22T13:54:48.028Z,41.80
2019-02-22T13:57:19.902Z,42.00
2019-02-22T13:59:51.921Z,41.90
2019-02-22T14:02:23.843Z,42.30
2019-02-22T14:04:55.520Z,42.70
2019-02-22T14:07:27.359Z,43.20
2019-02-22T14:09:59.088Z,43.30
2019-02-22T14:12:30.897Z,43.20
2019-02-22T14:15:02.713Z,43.20
2019-02-22T14:17:34.551Z,43.20
2019-02-22T14:20:07.111Z,43.40
2019-02-22T14:22:38.887Z,43.50
2019-02-22T14:25:10.684Z,43.40
2019-02-22T14:27:42.401Z,43.60
2019-02-22T14:30:14.735Z,43.60
2019-02-22T14:32:46.604Z,43.70
2019-02-22T14:35:18.398Z,43.60
2019-02-22T14:37:50.213Z,43.60
2019-02-22T14:40:22.469Z,43.80
2019-02-22T14:42:54.407Z,43.60
2019-02-22T14:45:26.720Z,43.50
2019-02-22T14:47:58.560Z,43.70
2019-02-22T14:50:32.197Z,44.10
2019-02-22T14:53:03.970Z,44.20
2019-02-22T14:55:35.846Z,44.20
2019-02-22T14:58:07.590Z,44.20
2019-02-22T15:00:40.958Z,43.90
2019-02-22T15:03:12.776Z,43.70
2019-02-22T15:05:44.746Z,43.50
2019-02-22T15:08:16.565Z,43.50
2019-02-22T15:10:48.700Z,43.30
2019-02-22T15:13:20.454Z,43.50
2019-02-22T15:16:23.139Z,43.60
2019-02-22T15:18:54.908Z,43.60
2019-02-22T15:21:26.640Z,43.40
2019-02-22T15:23:58.533Z,43.30
2019-02-22T15:26:31.052Z,43.50
2019-02-22T15:29:03.021Z,43.50
2019-02-22T15:31:36.372Z,43.40
2019-02-22T15:34:08.554Z,43.40
2019-02-22T15:36:40.396Z,43.40
2019-02-22T15:39:12.376Z,43.40
2019-02-22T15:41:44.270Z,43.50
2019-02-22T15:44:16.082Z,43.70
2019-02-22T15:46:50.289Z,43.80
2019-02-22T15:49:22.219Z,43.50
2019-02-22T15:51:54.463Z,43.80
2019-02-22T15:54:27.403Z,44.00
2019-02-22T15:56:59.180Z,44.00
2019-02-22T15:59:31.339Z,44.00
2019-02-22T16:02:03.180Z,44.10
2019-02-22T16:04:53.879Z,44.10
2019-02-22T16:07:25.583Z,44.20
2019-02-22T16:09:57.333Z,44.30
2019-02-22T16:12:28.996Z,44.20
2019-02-22T16:15:00.755Z,44.20
2019-02-22T16:17:32.773Z,44.20
2019-02-22T16:20:04.746Z,44.20
2019-02-22T16:22:36.680Z,44.30
2019-02-22T16:25:19.071Z,44.10
2019-02-22T16:27:42.270Z,44.60
2019-02-22T16:30:15.458Z,44.30
2019-02-22T16:32:47.329Z,44.30
2019-02-22T16:35:20.624Z,44.50
2019-02-22T16:37:52.707Z,44.50
2019-02-22T16:40:24.631Z,44.40
2019-02-22T16:42:56.429Z,44.40
2019-02-22T16:45:28.277Z,44.50
2019-02-22T16:47:59.998Z,44.50
2019-02-22T16:50:32.087Z,44.50
2019-02-22T16:53:04.622Z,44.70
2019-02-22T16:55:36.419Z,44.50
2019-02-22T16:58:08.230Z,44.50
2019-02-22T17:00:39.951Z,44.60
2019-02-22T17:03:11.746Z,44.60
2019-02-22T17:05:43.559Z,44.60
2019-02-22T17:08:15.514Z,44.60
2019-02-22T17:10:47.833Z,45.20
2019-02-22T17:13:19.653Z,44.60
2019-02-22T17:15:51.345Z,44.60
2019-02-22T17:18:23.105Z,44.70
2019-02-22T17:20:55.111Z,44.70
2019-02-22T17:23:27.204Z,44.70
2019-02-22T17:25:59.772Z,44.70
2019-02-22T17:28:31.844Z,44.90
2019-02-22T17:31:03.623Z,44.90
2019-02-22T17:33:35.905Z,45.00
2019-02-22T17:36:07.988Z,45.00
2019-02-22T17:38:40.476Z,45.00
2019-02-22T17:41:12.520Z,45.20
2019-02-22T17:43:44.195Z,45.00
2019-02-22T17:46:16.139Z,45.10
2019-02-22T17:48:47.986Z,45.10
2019-02-22T17:51:20.075Z,45.20
2019-02-22T17:53:51.788Z,45.20
2019-02-22T17:56:23.770Z,45.10
2019-02-22T17:59:11.332Z,45.80
2019-02-22T18:01:43.250Z,45.20
2019-02-22T18:04:26.279Z,45.10
2019-02-22T18:07:02.010Z,45.20
2019-02-22T18:09:34.233Z,45.00
2019-02-22T18:12:06.197Z,45.10
2019-02-22T18:14:41.437Z,45.10
2019-02-22T18:17:13.278Z,45.10
2019-02-22T18:19:45.005Z,45.00
2019-02-22T18:22:25.381Z,45.10
2019-02-22T18:24:50.504Z,45.10
2019-02-22T18:27:22.984Z,45.10
2019-02-22T18:29:54.816Z,45.20
2019-02-22T18:32:26.694Z,45.20
2019-02-22T18:34:58.645Z,45.10
2019-02-22T18:37:31.115Z,45.20
2019-02-22T18:40:03.183Z,44.50
2019-02-22T18:42:34.944Z,45.10
2019-02-22T18:45:07.172Z,45.10
2019-02-22T18:47:38.974Z,45.10
2019-02-22T18:50:11.454Z,45.00
2019-02-22T18:52:43.275Z,44.90
2019-02-22T18:55:15.153Z,45.00
2019-02-22T18:57:47.284Z,45.10
2019-02-22T19:00:20.372Z,45.20
2019-02-22T19:02:52.234Z,45.30
2019-02-22T19:05:24.058Z,45.50
2019-02-22T19:07:57.100Z,45.70
2019-02-22T19:10:29.059Z,45.70
2019-02-22T19:13:01.065Z,45.90
2019-02-22T19:15:33.170Z,46.00
2019-02-22T19:18:05.021Z,46.10
2019-02-22T19:20:36.943Z,46.20
2019-02-22T19:23:08.854Z,46.30
2019-02-22T19:25:40.722Z,46.50
2019-02-22T19:28:13.806Z,46.60
2019-02-22T19:30:45.942Z,46.80
2019-02-22T19:33:18.221Z,47.00
2019-02-22T19:35:50.276Z,47.10
2019-02-22T19:38:22.092Z,47.30
2019-02-22T19:40:54.012Z,47.50
2019-02-22T19:43:27.074Z,47.60
2019-02-22T19:45:59.069Z,47.80
2019-02-22T19:48:31.919Z,47.90
2019-02-22T19:51:03.722Z,48.20
2019-02-22T19:53:35.821Z,48.20
2019-02-22T19:56:07.740Z,48.50
2019-02-22T19:58:39.630Z,48.50
2019-02-22T20:01:11.786Z,48.60
2019-02-22T20:03:45.348Z,48.70
2019-02-22T20:06:17.255Z,48.80
2019-02-22T20:08:49.248Z,48.90
2019-02-22T20:11:22.434Z,49.20
2019-02-22T20:13:54.518Z,49.20
2019-02-22T20:16:26.544Z,49.40
2019-02-22T20:18:58.655Z,49.40
2019-02-22T20:21:30.689Z,49.50
2019-02-22T20:24:02.530Z,49.50
2019-02-22T20:26:34.449Z,49.60
2019-02-22T20:29:07.024Z,49.80
2019-02-22T20:31:39.344Z,49.80
2019-02-22T20:34:11.689Z,50.00
2019-02-22T20:36:44.225Z,50.10
2019-02-22T20:39:16.435Z,50.20
2019-02-22T20:41:48.774Z,50.10
2019-02-22T20:44:21.227Z,50.20
2019-02-22T20:46:53.302Z,50.30
2019-02-22T20:49:28.472Z,50.50
2019-02-22T20:52:00.417Z,50.50
2019-02-22T20:54:32.436Z,50.50
2019-02-22T20:57:04.231Z,50.70
2019-02-22T20:59:36.271Z,50.80
2019-02-22T21:02:08.306Z,50.80
2019-02-22T21:04:40.096Z,51.60
2019-02-22T21:07:11.921Z,51.00
2019-02-22T21:09:43.935Z,51.00
2019-02-22T21:12:15.825Z,51.00
2019-02-22T21:14:47.770Z,51.10
2019-02-22T21:17:20.046Z,51.10
2019-02-22T21:19:51.991Z,51.20
2019-02-22T21:22:23.892Z,51.10
2019-02-22T21:24:55.717Z,51.20
2019-02-22T21:27:27.539Z,51.20
2019-02-22T21:29:59.600Z,51.30
2019-02-22T21:32:31.561Z,51.30
2019-02-22T21:35:03.450Z,51.30
2019-02-22T21:37:35.172Z,51.90
2019-02-22T21:40:07.934Z,51.30
2019-02-22T21:42:40.016Z,51.30
2019-02-22T21:45:12.644Z,51.40
2019-02-22T21:47:54.380Z,51.30
2019-02-22T21:50:18.492Z,51.40
2019-02-22T21:52:50.465Z,51.40
2019-02-22T21:55:22.291Z,51.50
2019-02-22T21:57:54.164Z,51.50
2019-02-22T22:00:26.018Z,51.60
2019-02-22T22:02:57.889Z,51.70
2019-02-22T22:05:29.768Z,51.60
2019-02-22T22:08:01.552Z,51.60
2019-02-22T22:10:33.483Z,51.80
2019-02-22T22:13:05.415Z,51.90
2019-02-22T22:15:37.179Z,51.80
2019-02-22T22:18:09.052Z,51.90
2019-02-22T22:20:41.394Z,52.00
2019-02-22T22:23:14.204Z,51.90
2019-02-22T22:25:46.129Z,52.00
2019-02-22T22:28:18.006Z,51.90
2019-02-22T22:30:49.842Z,52.20
2019-02-22T22:33:21.763Z,52.00
2019-02-22T22:35:53.651Z,52.10
2019-02-22T22:38:25.530Z,52.00
2019-02-22T22:40:58.066Z,52.20
2019-02-22T22:43:30.073Z,52.20
2019-02-22T22:46:01.856Z,52.30
2019-02-22T22:48:33.803Z,52.40
2019-02-22T22:51:05.901Z,52.30
2019-02-22T22:53:39.195Z,52.30
2019-02-22T22:56:10.907Z,52.30
2019-02-22T22:58:42.687Z,52.30
2019-02-22T23:01:28.651Z,52.40
2019-02-22T23:04:00.392Z,52.50
2019-02-22T23:06:32.221Z,52.50
2019-02-22T23:09:06.836Z,52.60
2019-02-22T23:11:38.998Z,52.60
2019-02-22T23:14:10.799Z,52.70
2019-02-22T23:16:42.624Z,52.70
2019-02-22T23:19:17.084Z,52.70
2019-02-22T23:21:48.986Z,52.70
2019-02-22T23:24:20.827Z,52.70
2019-02-22T23:26:52.877Z,52.80
2019-02-22T23:29:24.598Z,52.70
2019-02-22T23:31:56.810Z,52.80
2019-02-22T23:34:28.888Z,52.90
2019-02-22T23:37:00.586Z,52.80
2019-02-22T23:39:33.854Z,53.00
2019-02-22T23:42:06.139Z,53.00
2019-02-22T23:44:37.847Z,52.90
2019-02-22T23:47:09.681Z,53.10
2019-02-22T23:49:41.532Z,53.00
2019-02-22T23:52:13.216Z,53.00
2019-02-22T23:54:44.848Z,53.10
2019-02-22T23:57:16.891Z,52.90
2019-02-22T23:59:48.905Z,53.00
